Aviation Digital Data Service (ADDS)

Output produced by METARs form (1036 UTC 07 December 2022)
found at http://www.aviationweather.gov/metar/data/
 
K5A6 071035Z AUTO 20004KT 10SM SCT019 SCT043 SCT060 20/19 A3016 RMK AO2 T01990185
K5A6 071015Z AUTO 21003KT 10SM SCT047 BKN060 20/19 A3016 RMK AO2 LTG DSNT W T02000185
K5A6 070955Z AUTO 18006KT 10SM SCT045 BKN060 20/19 A3014 RMK AO2 T02000185
K5A6 070935Z AUTO 20004KT 10SM SCT043 OVC060 20/19 A3015 RMK AO2 LTG DSNT W T02010185
K5A6 070915Z AUTO 00000KT 10SM OVC060 20/18 A3014 RMK AO2 T02040184
K5A6 070855Z AUTO 20005KT 10SM OVC060 21/18 A3014 RMK AO2 P0001 60001 T02050184
K5A6 070835Z AUTO 20005KT 10SM OVC060 20/18 A3014 RMK AO2 P0001 T02030184
K5A6 070815Z AUTO 20005KT 10SM SCT045 SCT050 OVC060 20/18 A3013 RMK AO2 P0001 T02040184
K5A6 070755Z AUTO 20004KT 10SM -DZ SCT042 OVC060 21/18 A3013 RMK AO2 T02050184
K5A6 070735Z AUTO 20005KT 10SM SCT042 OVC050 20/18 A3013 RMK AO2 T02030183
K5A6 070715Z AUTO 20005KT 10SM SCT042 OVC050 21/18 A3012 RMK AO2 T02050183
K5A6 070655Z AUTO 20005KT 10SM OVC050 21/18 A3012 RMK AO2 T02050183
K5A6 070635Z AUTO 21004KT 10SM OVC050 21/18 A3012 RMK AO2 T02060182
K5A6 070615Z AUTO 20004KT 10SM SCT048 OVC050 21/18 A3011 RMK AO2 T02050182
K5A6 070555Z AUTO 20006KT 10SM BKN048 OVC050 21/18 A3011 RMK AO2 T02050181 10205 20173
K5A6 070535Z AUTO 21004KT 10SM OVC050 21/18 A3011 RMK AO2 T02050181
K5A6 070515Z AUTO 20005KT 10SM -DZ OVC050 20/18 A3010 RMK AO2 T02020181
K5A6 070455Z AUTO 19004KT 10SM OVC060 20/18 A3010 RMK AO2 T02000179
K5A6 070435Z AUTO 21003KT 10SM OVC060 20/18 A3010 RMK AO2 T02020177
K5A6 070415Z AUTO 00000KT 10SM OVC060 20/18 A3009 RMK AO2 T02000176
K5A6 070355Z AUTO 00000KT 10SM SCT045 OVC060 20/18 A3009 RMK AO2 T01990176
K5A6 070335Z AUTO 00000KT 10SM BKN045 OVC060 20/17 A3009 RMK AO2 T01950174
K5A6 070315Z AUTO 00000KT 10SM SCT045 BKN060 19/18 A3008 RMK AO2 T01850175
K5A6 070255Z AUTO 00000KT 10SM BKN060 17/17 A3008 RMK AO2 T01740165
K5A6 070235Z AUTO 00000KT 10SM BKN050 18/17 A3008 RMK AO2 T01770169
K5A6 070215Z AUTO 00000KT 10SM OVC050 18/17 A3008 RMK AO2 T01760166
K5A6 070155Z AUTO 00000KT 10SM OVC050 18/17 A3007 RMK AO2 T01770169
K5A6 070135Z AUTO 00000KT 10SM BKN050 18/17 A3007 RMK AO2 T01800169
K5A6 070115Z AUTO 00000KT 10SM SCT050 18/17 A3007 RMK AO2 T01800170
K5A6 070055Z AUTO 00000KT 10SM CLR 18/17 A3005 RMK AO2 T01810169
K5A6 070035Z AUTO 00000KT 10SM CLR 19/17 A3005 RMK AO2 T01850170
K5A6 070015Z AUTO 00000KT 10SM CLR 19/17 A3004 RMK AO2 T01900171
K5A6 062355Z AUTO 00000KT 10SM CLR 20/17 A3004 RMK AO2 6//// T01950171
K5A6 062335Z AUTO 00000KT 10SM CLR 21/17 A3003 RMK AO2 T02050173
K5A6 062315Z AUTO 00000KT 10SM SCT050 22/17 A3003 RMK AO2 T02150173
K5A6 062255Z AUTO 00000KT 10SM SCT055 22/17 A3003 RMK AO2 T02190174
K5A6 062235Z AUTO 20005KT 10SM SCT050 22/17 A3003 RMK AO2 LTG DSNT NE T02220174
K5A6 062215Z AUTO 21004KT 10SM SCT050 23/18 A3003 RMK AO2 T02330175
K5A6 062155Z AUTO 20004KT 10SM BKN050 24/17 A3001 RMK AO2 T02350173
K5A6 062135Z AUTO 21005KT 10SM SCT050 24/17 A3001 RMK AO2 T02370173
K5A6 062115Z AUTO 20004KT 10SM SCT042 SCT050 23/18 A3001 RMK AO2 T02340177
K5A6 062055Z AUTO 20007KT 10SM SCT042 BKN050 24/18 A3000 RMK AO2 6//// T02350180
K5A6 062035Z AUTO 18006KT 10SM BKN050 24/18 A3000 RMK AO2 T02350181
K5A6 062015Z AUTO 19005KT 10SM SCT041 OVC055 24/18 A3001 RMK AO2 T02360180
K5A6 061955Z AUTO 20003KT 10SM SCT035 SCT047 BKN055 24/18 A3001 RMK AO2 T02360181
K5A6 061935Z AUTO 20005KT 10SM SCT043 SCT050 24/18 A3001 RMK AO2 T02350177
K5A6 061915Z AUTO 20008KT 23/18 A3001 RMK AO2 T02310176 PWINO